Terminal Aerodrome Forecast
Issued by NWS Omaha/Valley, NE

Home | Current Version | Previous Version | Text Only | Print | Product List | Glossary Off
Versions: 1 2 3 4 5 6 7 8 9 10 11 12 13 14 15 16 17 18 19 20 21 22 23 24 25 26 27 28 29 30 31 32 33 34 35 36 37 38 39 40 41

000
FTUS43 KOAX 241603 AAB
TAFOFK
TAF AMD
KOFK 241603Z 2416/2512 09004KT 3SM BR OVC007
      TEMPO 2417/2419 6SM BR OVC015
     FM241900 VRB04KT P6SM OVC015
     FM250100 12007KT P6SM OVC035
     FM250800 VRB03KT 3SM BR OVC005=

USA.gov is the U.S. government's official web portal to all federal, state and local government web resources and services.